Time;durP1;ratioP1;P1;durP2;ratioP2;P2;SDS_P1;SDS_P2;PMS_P1;PMS_P2;Temp;Humidity;BMP_temperature;BMP_pressure;BME280_temperature;BME280_humidity;BME280_pressure;Samples;Min_cycle;Max_cycle;Signal;HPM_P1;HPM_P2
2021/01/07 00:01:23;;;;;;;29.55;19.27;;;;;;;;;;5094703;28;20609;-65
2021/01/07 00:03:51;;;;;;;28.08;18.45;;;;;;;;;;5094183;28;20195;-65
2021/01/07 00:06:18;;;;;;;28.10;19.95;;;;;;;;;;5094354;28;20672;-65
2021/01/07 00:08:45;;;;;;;30.67;19.67;;;;;;;;;;5094523;28;20253;-65
2021/01/07 00:11:12;;;;;;;31.17;20.33;;;;;;;;;;5094108;28;20233;-65
2021/01/07 00:13:39;;;;;;;29.55;21.48;;;;;;;;;;5094003;28;20199;-64
2021/01/07 00:16:06;;;;;;;30.00;20.20;;;;;;;;;;5094341;28;20214;-64
2021/01/07 00:18:33;;;;;;;28.73;18.67;;;;;;;;;;5094129;28;20191;-64
2021/01/07 00:21:00;;;;;;;29.60;19.30;;;;;;;;;;5094271;28;20552;-64
2021/01/07 00:23:28;;;;;;;30.58;18.90;;;;;;;;;;5092665;28;20203;-64
2021/01/07 00:25:55;;;;;;;28.98;20.30;;;;;;;;;;5093817;28;20199;-64
2021/01/07 00:28:24;;;;;;;29.35;19.70;;;;;;;;;;5094219;28;20270;-64
2021/01/07 00:30:51;;;;;;;33.22;20.90;;;;;;;;;;5094086;28;20204;-64
2021/01/07 00:33:19;;;;;;;28.38;19.20;;;;;;;;;;5093630;28;20650;-65
2021/01/07 00:35:46;;;;;;;33.38;20.58;;;;;;;;;;5093072;28;20203;-65
2021/01/07 00:38:12;;;;;;;32.85;21.27;;;;;;;;;;5094043;28;20214;-65
2021/01/07 00:40:39;;;;;;;32.92;20.13;;;;;;;;;;5093618;28;20582;-65
2021/01/07 00:43:06;;;;;;;30.98;19.25;;;;;;;;;;5093775;28;20588;-65
2021/01/07 00:45:35;;;;;;;33.20;20.10;;;;;;;;;;5093481;28;20204;-65
2021/01/07 00:48:02;;;;;;;30.35;19.35;;;;;;;;;;5093358;28;20235;-65
2021/01/07 00:50:29;;;;;;;33.63;21.45;;;;;;;;;;5093672;28;20190;-64
2021/01/07 00:52:57;;;;;;;32.58;21.05;;;;;;;;;;5093825;28;20207;-64
2021/01/07 00:55:24;;;;;;;31.45;19.60;;;;;;;;;;5093629;28;20198;-64
2021/01/07 00:57:51;;;;;;;37.47;21.48;;;;;;;;;;5093369;28;20252;-64
2021/01/07 01:00:23;;;;;;;33.85;20.73;;;;;;;;;;5093719;28;20580;-64
2021/01/07 01:02:51;;;;;;;32.10;20.92;;;;;;;;;;5093770;28;20225;-64
2021/01/07 01:05:18;;;;;;;29.65;19.15;;;;;;;;;;5093545;28;20725;-64
2021/01/07 01:07:44;;;;;;;36.38;21.02;;;;;;;;;;5093458;28;20638;-64
2021/01/07 01:10:11;;;;;;;30.33;20.10;;;;;;;;;;5093295;28;20665;-65
2021/01/07 01:12:38;;;;;;;39.95;22.25;;;;;;;;;;5093218;28;20811;-65
2021/01/07 01:15:07;;;;;;;33.88;20.75;;;;;;;;;;5093704;28;20210;-65
2021/01/07 01:17:36;;;;;;;29.88;19.55;;;;;;;;;;5093572;28;20294;-65
2021/01/07 01:20:05;;;;;;;35.30;20.42;;;;;;;;;;5093273;28;20666;-65
2021/01/07 01:22:32;;;;;;;33.85;19.63;;;;;;;;;;5093517;28;20199;-65
2021/01/07 01:25:07;;;;;;;33.03;20.60;;;;;;;;;;5093272;28;20183;-65
2021/01/07 01:27:37;;;;;;;33.30;20.80;;;;;;;;;;5093640;28;20207;-65
2021/01/07 01:30:05;;;;;;;40.20;22.10;;;;;;;;;;5093532;28;20199;-65
2021/01/07 01:32:33;;;;;;;34.13;20.92;;;;;;;;;;5093051;28;20207;-65
2021/01/07 01:35:00;;;;;;;37.53;22.08;;;;;;;;;;5093205;28;20217;-65
2021/01/07 01:37:29;;;;;;;38.42;21.67;;;;;;;;;;5093573;28;20256;-65
2021/01/07 01:39:57;;;;;;;38.13;19.80;;;;;;;;;;5093091;28;20215;-64
2021/01/07 01:42:24;;;;;;;35.45;21.75;;;;;;;;;;5093047;28;20191;-64
2021/01/07 01:44:52;;;;;;;37.78;20.95;;;;;;;;;;5093786;28;20643;-66
2021/01/07 01:47:19;;;;;;;43.72;23.38;;;;;;;;;;5092097;28;20621;-66
2021/01/07 01:49:50;;;;;;;40.00;22.20;;;;;;;;;;5096854;28;20199;-67
2021/01/07 01:52:18;;;;;;;41.10;22.83;;;;;;;;;;5097312;28;20206;-66
2021/01/07 01:54:45;;;;;;;42.50;23.80;;;;;;;;;;5097164;28;20207;-66
2021/01/07 01:57:15;;;;;;;41.17;23.20;;;;;;;;;;5097350;28;20567;-66
2021/01/07 01:59:42;;;;;;;42.22;22.13;;;;;;;;;;5097250;28;20249;-66
2021/01/07 02:02:15;;;;;;;40.60;22.70;;;;;;;;;;5096696;28;20272;-67
2021/01/07 02:04:42;;;;;;;43.97;22.73;;;;;;;;;;5096834;28;20175;-66
2021/01/07 02:07:12;;;;;;;39.30;21.38;;;;;;;;;;5096529;28;20203;-66
2021/01/07 02:09:43;;;;;;;39.63;20.73;;;;;;;;;;5097169;28;20211;-66
2021/01/07 02:12:13;;;;;;;41.85;22.67;;;;;;;;;;5096680;28;20199;-66
2021/01/07 02:14:43;;;;;;;45.40;22.65;;;;;;;;;;5096648;28;20198;-66
2021/01/07 02:17:10;;;;;;;44.08;23.15;;;;;;;;;;5096372;28;20196;-66
2021/01/07 02:19:37;;;;;;;48.20;25.42;;;;;;;;;;5096441;28;20265;-66
2021/01/07 02:22:04;;;;;;;40.35;23.45;;;;;;;;;;5096268;28;20245;-66
2021/01/07 02:24:36;;;;;;;42.83;26.02;;;;;;;;;;5096539;28;20270;-66
2021/01/07 02:27:07;;;;;;;43.38;22.13;;;;;;;;;;5096727;28;20203;-66
2021/01/07 02:29:34;;;;;;;46.90;24.90;;;;;;;;;;5096465;28;20673;-66
2021/01/07 02:32:01;;;;;;;42.95;21.92;;;;;;;;;;5096226;28;20187;-66
2021/01/07 02:34:27;;;;;;;44.10;22.35;;;;;;;;;;5096203;28;20207;-66
2021/01/07 02:36:54;;;;;;;43.22;23.13;;;;;;;;;;5096542;28;20588;-66
2021/01/07 02:39:21;;;;;;;47.28;25.85;;;;;;;;;;5095951;28;20693;-66
2021/01/07 02:41:50;;;;;;;38.83;22.38;;;;;;;;;;5095772;28;20211;-66
2021/01/07 02:44:17;;;;;;;43.47;24.10;;;;;;;;;;5095877;28;20345;-66
2021/01/07 02:46:44;;;;;;;46.03;25.52;;;;;;;;;;5096162;28;20238;-66
2021/01/07 02:49:10;;;;;;;40.65;22.85;;;;;;;;;;5096027;28;20234;-66
2021/01/07 02:51:38;;;;;;;43.80;22.83;;;;;;;;;;5096109;28;20282;-65
2021/01/07 02:54:05;;;;;;;42.03;23.15;;;;;;;;;;5096082;28;20241;-64
2021/01/07 02:56:32;;;;;;;42.90;23.35;;;;;;;;;;5095692;28;20187;-64
2021/01/07 02:58:59;;;;;;;40.60;21.65;;;;;;;;;;5095114;28;20560;-66
2021/01/07 03:01:26;;;;;;;45.60;25.30;;;;;;;;;;5095791;28;20674;-64
2021/01/07 03:03:56;;;;;;;45.42;22.35;;;;;;;;;;5095439;28;20206;-64
2021/01/07 03:06:23;;;;;;;48.38;24.95;;;;;;;;;;5095433;28;20670;-64
2021/01/07 03:08:54;;;;;;;45.75;22.98;;;;;;;;;;5095372;28;20203;-65
2021/01/07 03:11:21;;;;;;;47.17;22.25;;;;;;;;;;5094713;28;20195;-65
2021/01/07 03:13:47;;;;;;;44.38;23.95;;;;;;;;;;5095582;28;20187;-65
2021/01/07 03:16:14;;;;;;;46.13;24.73;;;;;;;;;;5095495;28;20186;-65
2021/01/07 03:18:40;;;;;;;51.28;24.77;;;;;;;;;;5095817;28;20192;-65
2021/01/07 03:21:07;;;;;;;45.17;24.70;;;;;;;;;;5095671;28;20214;-65
2021/01/07 03:23:34;;;;;;;44.40;23.48;;;;;;;;;;5095660;28;20199;-65
2021/01/07 03:26:00;;;;;;;48.28;25.08;;;;;;;;;;5095836;28;20202;-65
2021/01/07 03:28:27;;;;;;;47.00;25.90;;;;;;;;;;5095875;28;20256;-65
2021/01/07 03:30:54;;;;;;;45.00;24.15;;;;;;;;;;5094554;28;20697;-65
2021/01/07 03:33:20;;;;;;;48.45;24.20;;;;;;;;;;5095646;28;20195;-65
2021/01/07 03:35:47;;;;;;;47.97;25.08;;;;;;;;;;5095509;28;20353;-65
2021/01/07 03:38:16;;;;;;;45.22;25.08;;;;;;;;;;5095301;28;20198;-65
2021/01/07 03:40:42;;;;;;;39.60;22.15;;;;;;;;;;5095267;28;20582;-65
2021/01/07 03:43:09;;;;;;;42.03;23.00;;;;;;;;;;5095164;28;20195;-65
2021/01/07 03:45:36;;;;;;;42.78;23.02;;;;;;;;;;5095186;28;20191;-65
2021/01/07 03:48:04;;;;;;;41.00;22.58;;;;;;;;;;5094666;28;20231;-65
2021/01/07 03:50:31;;;;;;;44.47;22.02;;;;;;;;;;5094753;28;20191;-65
2021/01/07 03:53:01;;;;;;;43.60;23.13;;;;;;;;;;5094977;28;20655;-65
2021/01/07 03:55:29;;;;;;;41.80;24.10;;;;;;;;;;5094494;28;20674;-65
2021/01/07 03:57:55;;;;;;;45.45;23.35;;;;;;;;;;5094730;28;20260;-65
2021/01/07 04:00:22;;;;;;;43.38;23.45;;;;;;;;;;5093426;28;20300;-65
2021/01/07 04:02:51;;;;;;;46.83;24.00;;;;;;;;;;5094617;28;20274;-65
2021/01/07 04:05:18;;;;;;;42.45;23.35;;;;;;;;;;5094999;28;20639;-65
2021/01/07 04:07:45;;;;;;;38.33;22.10;;;;;;;;;;5094732;28;20556;-65
2021/01/07 04:10:11;;;;;;;39.42;21.10;;;;;;;;;;5094688;28;20203;-67
2021/01/07 04:12:38;;;;;;;41.50;21.17;;;;;;;;;;5094116;28;20195;-65
2021/01/07 04:15:06;;;;;;;43.00;22.30;;;;;;;;;;5095113;28;20198;-65
2021/01/07 04:17:34;;;;;;;39.65;21.75;;;;;;;;;;5094742;28;20192;-65
2021/01/07 04:20:01;;;;;;;39.10;22.75;;;;;;;;;;5095242;28;20223;-65
2021/01/07 04:22:30;;;;;;;47.03;23.52;;;;;;;;;;5093669;28;20187;-65
2021/01/07 04:24:57;;;;;;;41.33;21.58;;;;;;;;;;5094947;28;20550;-65
2021/01/07 04:27:23;;;;;;;46.15;21.70;;;;;;;;;;5094648;28;20221;-65
2021/01/07 04:29:50;;;;;;;43.60;23.67;;;;;;;;;;5094604;28;20203;-65
2021/01/07 04:32:17;;;;;;;49.65;23.80;;;;;;;;;;5094522;28;20201;-65
2021/01/07 04:34:43;;;;;;;41.33;21.45;;;;;;;;;;5094431;28;20195;-66
2021/01/07 04:37:10;;;;;;;40.33;21.52;;;;;;;;;;5094642;28;20233;-65
2021/01/07 04:39:38;;;;;;;43.38;21.08;;;;;;;;;;5094828;28;20195;-65
2021/01/07 04:42:05;;;;;;;41.90;19.80;;;;;;;;;;5094548;28;20190;-65
2021/01/07 04:44:34;;;;;;;36.05;18.80;;;;;;;;;;5092869;28;20194;-65
2021/01/07 04:47:01;;;;;;;41.72;20.88;;;;;;;;;;5093866;28;20292;-65
2021/01/07 04:49:28;;;;;;;42.85;21.73;;;;;;;;;;5094955;28;20268;-65
2021/01/07 04:51:55;;;;;;;45.08;22.50;;;;;;;;;;5092545;28;20191;-65
2021/01/07 04:54:22;;;;;;;44.60;23.50;;;;;;;;;;5093620;28;20191;-65
2021/01/07 04:56:57;;;;;;;46.38;24.33;;;;;;;;;;5093694;28;20171;-65
2021/01/07 04:59:24;;;;;;;47.45;24.55;;;;;;;;;;5093995;28;20531;-65
2021/01/07 05:01:50;;;;;;;52.60;25.92;;;;;;;;;;5093754;28;20194;-65
2021/01/07 05:04:17;;;;;;;46.95;24.60;;;;;;;;;;5093615;28;20601;-65
2021/01/07 05:06:50;;;;;;;48.55;26.40;;;;;;;;;;5093434;28;20191;-66
2021/01/07 05:09:16;;;;;;;51.80;25.20;;;;;;;;;;5093485;28;20199;-65
2021/01/07 05:11:43;;;;;;;58.00;24.45;;;;;;;;;;5093638;28;20544;-65
2021/01/07 05:14:10;;;;;;;52.63;25.00;;;;;;;;;;5093590;28;20195;-65
2021/01/07 05:16:37;;;;;;;56.05;27.95;;;;;;;;;;5093640;28;20203;-65
2021/01/07 05:19:05;;;;;;;58.70;25.33;;;;;;;;;;5093794;28;20549;-65
2021/01/07 05:21:34;;;;;;;51.30;25.92;;;;;;;;;;5093871;28;20227;-65
2021/01/07 05:24:02;;;;;;;55.50;25.20;;;;;;;;;;5098202;28;20203;-65
2021/01/07 05:26:29;;;;;;;66.03;27.30;;;;;;;;;;5097563;28;20187;-65
2021/01/07 05:28:56;;;;;;;52.75;25.27;;;;;;;;;;5098051;28;20257;-65
2021/01/07 05:31:24;;;;;;;62.08;27.45;;;;;;;;;;5097565;28;20207;-65
2021/01/07 05:33:52;;;;;;;60.88;25.08;;;;;;;;;;5097601;28;20195;-65
2021/01/07 05:36:22;;;;;;;62.22;28.20;;;;;;;;;;5097338;28;20187;-65
2021/01/07 05:38:50;;;;;;;55.13;26.55;;;;;;;;;;5097512;28;20598;-65
2021/01/07 05:41:18;;;;;;;57.58;25.92;;;;;;;;;;5097023;28;20580;-65
2021/01/07 05:43:59;;;;;;;56.63;25.13;;;;;;;;;;5097207;28;20172;-65
2021/01/07 05:46:25;;;;;;;58.80;27.50;;;;;;;;;;5097259;28;20190;-65
2021/01/07 05:48:55;;;;;;;70.63;28.70;;;;;;;;;;5098046;28;20219;-65
2021/01/07 05:51:30;;;;;;;59.22;26.42;;;;;;;;;;5097214;28;20180;-65
2021/01/07 05:53:57;;;;;;;52.25;26.00;;;;;;;;;;5097963;28;20199;-65
2021/01/07 05:56:25;;;;;;;51.40;25.15;;;;;;;;;;5097100;28;20199;-65
2021/01/07 05:58:54;;;;;;;51.60;26.40;;;;;;;;;;5096811;28;20199;-65
2021/01/07 06:01:22;;;;;;;60.13;28.58;;;;;;;;;;5097369;28;20727;-65
2021/01/07 06:03:49;;;;;;;65.45;26.88;;;;;;;;;;5097102;28;20661;-65
2021/01/07 06:06:20;;;;;;;51.90;24.92;;;;;;;;;;5097038;28;20191;-65
2021/01/07 06:08:48;;;;;;;57.00;26.10;;;;;;;;;;5097192;28;20176;-65
2021/01/07 06:11:15;;;;;;;63.05;27.00;;;;;;;;;;5096915;28;20604;-65
2021/01/07 06:13:43;;;;;;;56.45;25.83;;;;;;;;;;5096754;28;20195;-65
2021/01/07 06:16:17;;;;;;;61.40;28.02;;;;;;;;;;5096563;28;20650;-65
2021/01/07 06:18:45;;;;;;;65.68;28.65;;;;;;;;;;5096514;28;20191;-65
2021/01/07 06:21:13;;;;;;;62.90;27.60;;;;;;;;;;5096760;28;20226;-65
2021/01/07 06:23:46;;;;;;;54.78;28.45;;;;;;;;;;5096625;28;20237;-65
2021/01/07 06:26:24;;;;;;;61.20;27.35;;;;;;;;;;5096245;28;20639;-65
2021/01/07 06:28:56;;;;;;;64.28;28.50;;;;;;;;;;5096927;28;20198;-65
2021/01/07 06:31:50;;;;;;;58.85;29.75;;;;;;;;;;5096285;28;20562;-65
2021/01/07 06:34:25;;;;;;;63.03;27.17;;;;;;;;;;5092837;28;20207;-65
2021/01/07 06:36:52;;;;;;;62.88;28.80;;;;;;;;;;5096059;28;20557;-65
2021/01/07 06:39:22;;;;;;;69.47;28.67;;;;;;;;;;5095944;28;20175;-65
2021/01/07 06:41:52;;;;;;;65.18;27.30;;;;;;;;;;5095852;28;20223;-65
2021/01/07 06:44:19;;;;;;;65.20;28.50;;;;;;;;;;5095794;28;20196;-65
2021/01/07 06:46:49;;;;;;;69.50;29.27;;;;;;;;;;5095895;28;20706;-65
2021/01/07 06:49:22;;;;;;;66.95;31.17;;;;;;;;;;5095854;28;20215;-65
2021/01/07 06:51:53;;;;;;;66.93;28.90;;;;;;;;;;5096446;28;20211;-65
2021/01/07 06:54:22;;;;;;;66.35;29.60;;;;;;;;;;5096093;28;20203;-65
2021/01/07 06:56:52;;;;;;;71.47;30.77;;;;;;;;;;5095950;28;20191;-65
2021/01/07 06:59:21;;;;;;;72.68;30.55;;;;;;;;;;5095703;28;20550;-65
2021/01/07 07:01:51;;;;;;;64.80;27.95;;;;;;;;;;5095977;28;20235;-65
2021/01/07 07:04:30;;;;;;;62.95;28.35;;;;;;;;;;5096554;28;20199;-65
2021/01/07 07:07:09;;;;;;;63.65;28.27;;;;;;;;;;5095518;28;20274;-65
2021/01/07 07:09:41;;;;;;;65.78;29.50;;;;;;;;;;5095362;28;20225;-65
2021/01/07 07:12:08;;;;;;;69.57;30.60;;;;;;;;;;5094975;28;20619;-65
2021/01/07 07:14:36;;;;;;;67.57;28.65;;;;;;;;;;5095611;28;20198;-65
2021/01/07 07:17:10;;;;;;;72.03;29.08;;;;;;;;;;5095351;28;20309;-65
2021/01/07 07:19:38;;;;;;;71.53;29.10;;;;;;;;;;5095110;28;20666;-65
2021/01/07 07:22:09;;;;;;;72.57;29.80;;;;;;;;;;5095182;28;20256;-65
2021/01/07 07:24:35;;;;;;;70.13;28.95;;;;;;;;;;5093749;28;20199;-65
2021/01/07 07:27:03;;;;;;;71.43;29.23;;;;;;;;;;5095467;28;20183;-65
2021/01/07 07:29:34;;;;;;;66.15;29.38;;;;;;;;;;5095192;28;20659;-65
2021/01/07 07:32:01;;;;;;;81.80;30.73;;;;;;;;;;5093667;28;20214;-65
2021/01/07 07:34:29;;;;;;;75.18;29.20;;;;;;;;;;5095232;28;20192;-65
2021/01/07 07:36:58;;;;;;;68.15;29.98;;;;;;;;;;5095680;28;20204;-65
2021/01/07 07:39:31;;;;;;;78.65;33.00;;;;;;;;;;5093415;28;20716;-66
2021/01/07 07:42:08;;;;;;;72.03;29.55;;;;;;;;;;5094903;28;20674;-64
2021/01/07 07:44:35;;;;;;;74.38;30.67;;;;;;;;;;5094805;28;20198;-64
2021/01/07 07:47:03;;;;;;;73.35;30.02;;;;;;;;;;5094765;28;20230;-64
2021/01/07 07:49:29;;;;;;;69.32;29.13;;;;;;;;;;5094468;28;20223;-64
2021/01/07 07:51:56;;;;;;;75.93;29.90;;;;;;;;;;5094988;28;20203;-64
2021/01/07 07:54:23;;;;;;;83.35;32.40;;;;;;;;;;5094515;28;20207;-64
2021/01/07 07:56:57;;;;;;;84.32;33.40;;;;;;;;;;5094882;28;20207;-65
2021/01/07 07:59:24;;;;;;;75.25;29.95;;;;;;;;;;5094528;28;20167;-65
2021/01/07 08:01:53;;;;;;;74.22;32.20;;;;;;;;;;5094441;28;20219;-64
2021/01/07 08:04:21;;;;;;;100.93;33.85;;;;;;;;;;5094089;28;20563;-65
2021/01/07 08:06:48;;;;;;;76.07;30.90;;;;;;;;;;5090867;28;20203;-65
2021/01/07 08:09:16;;;;;;;69.70;30.05;;;;;;;;;;5089431;28;20214;-65
2021/01/07 08:11:43;;;;;;;91.03;33.15;;;;;;;;;;5097791;28;20203;-65
2021/01/07 08:14:11;;;;;;;86.82;32.58;;;;;;;;;;5095991;28;20241;-65
2021/01/07 08:16:38;;;;;;;88.53;31.67;;;;;;;;;;5099569;28;20199;-65
2021/01/07 08:19:19;;;;;;;81.45;32.60;;;;;;;;;;5114190;28;20191;-66
2021/01/07 08:21:48;;;;;;;90.30;31.15;;;;;;;;;;5099892;28;20592;-65
2021/01/07 08:24:16;;;;;;;84.15;33.08;;;;;;;;;;5105622;28;20218;-65
2021/01/07 08:26:45;;;;;;;91.18;34.33;;;;;;;;;;5104803;28;20265;-65
2021/01/07 08:29:12;;;;;;;84.38;31.23;;;;;;;;;;5113872;28;20187;-65
2021/01/07 08:31:41;;;;;;;77.97;31.88;;;;;;;;;;5113887;28;20199;-65
2021/01/07 08:34:08;;;;;;;84.07;34.05;;;;;;;;;;5113683;28;20199;-66
2021/01/07 08:36:35;;;;;;;88.25;33.97;;;;;;;;;;5099172;28;20207;-65
2021/01/07 08:39:01;;;;;;;84.78;32.17;;;;;;;;;;5113635;28;20240;-65
2021/01/07 08:41:30;;;;;;;100.75;34.30;;;;;;;;;;5104280;28;20696;-65
2021/01/07 08:44:01;;;;;;;93.15;35.83;;;;;;;;;;5109162;28;20209;-66
2021/01/07 08:46:29;;;;;;;87.07;35.90;;;;;;;;;;5108340;28;20203;-66
2021/01/07 08:49:01;;;;;;;87.07;37.08;;;;;;;;;;5104404;28;20227;-66
2021/01/07 08:51:28;;;;;;;95.07;34.60;;;;;;;;;;5113321;28;20652;-65
2021/01/07 08:53:56;;;;;;;78.57;32.38;;;;;;;;;;5102682;28;20215;-66
2021/01/07 08:56:29;;;;;;;77.63;33.95;;;;;;;;;;5093760;28;20260;-66
2021/01/07 08:59:18;;;;;;;76.35;32.05;;;;;;;;;;5092324;28;20205;-66
2021/01/07 09:01:45;;;;;;;89.28;33.65;;;;;;;;;;5091564;28;20231;-66
2021/01/07 09:04:24;;;;;;;76.53;34.45;;;;;;;;;;5092536;28;20238;-66
2021/01/07 09:07:13;;;;;;;64.28;34.85;;;;;;;;;;5092666;28;20833;-66
2021/01/07 09:09:53;;;;;;;60.83;31.33;;;;;;;;;;5083297;28;20670;-66
2021/01/07 09:12:24;;;;;;;58.85;29.88;;;;;;;;;;5093666;28;20203;-66
2021/01/07 09:14:51;;;;;;;58.40;27.30;;;;;;;;;;5093469;28;20191;-65
2021/01/07 09:17:26;;;;;;;54.85;27.45;;;;;;;;;;5094428;28;20192;-65
2021/01/07 09:19:53;;;;;;;62.60;28.45;;;;;;;;;;5093582;28;20199;-66
2021/01/07 09:22:25;;;;;;;61.42;29.40;;;;;;;;;;5093121;28;20223;-65
2021/01/07 09:24:52;;;;;;;53.15;26.60;;;;;;;;;;5093411;28;20172;-66
2021/01/07 09:27:20;;;;;;;77.47;30.00;;;;;;;;;;5093678;28;20199;-66
2021/01/07 09:29:47;;;;;;;47.30;25.50;;;;;;;;;;5093383;28;20191;-66
2021/01/07 09:32:15;;;;;;;56.22;28.10;;;;;;;;;;5093217;28;20622;-66
2021/01/07 09:34:45;;;;;;;53.47;26.85;;;;;;;;;;5093549;28;20203;-65
2021/01/07 09:37:16;;;;;;;57.70;27.40;;;;;;;;;;5093597;28;20313;-65
2021/01/07 09:39:45;;;;;;;56.72;27.58;;;;;;;;;;5093599;28;20203;-65
2021/01/07 09:42:13;;;;;;;57.47;28.95;;;;;;;;;;5093551;28;20246;-66
2021/01/07 09:44:41;;;;;;;52.55;26.35;;;;;;;;;;5093512;28;20191;-66
2021/01/07 09:47:07;;;;;;;49.63;27.20;;;;;;;;;;5093034;28;20304;-65
2021/01/07 09:49:35;;;;;;;45.80;24.25;;;;;;;;;;5093191;28;20223;-66
2021/01/07 09:52:03;;;;;;;46.80;25.73;;;;;;;;;;5093428;28;20574;-66
2021/01/07 09:54:30;;;;;;;47.22;25.52;;;;;;;;;;5093420;28;20673;-66
2021/01/07 09:56:57;;;;;;;49.67;26.63;;;;;;;;;;5093213;28;20187;-66
2021/01/07 09:59:25;;;;;;;49.00;25.85;;;;;;;;;;5093938;28;20204;-66
2021/01/07 10:01:59;;;;;;;46.42;24.55;;;;;;;;;;5092955;28;20223;-66
2021/01/07 10:04:29;;;;;;;46.20;25.50;;;;;;;;;;5093016;28;20694;-65
2021/01/07 10:06:56;;;;;;;40.55;23.38;;;;;;;;;;5093367;28;20252;-67
2021/01/07 10:09:25;;;;;;;45.13;25.70;;;;;;;;;;5094083;28;20290;-66
2021/01/07 10:11:58;;;;;;;51.05;25.27;;;;;;;;;;5096511;28;20187;-66
2021/01/07 10:14:29;;;;;;;44.88;24.15;;;;;;;;;;5096346;28;20206;-67
2021/01/07 10:16:58;;;;;;;49.38;27.25;;;;;;;;;;5096552;28;20208;-66
2021/01/07 10:19:26;;;;;;;42.63;23.63;;;;;;;;;;5096540;28;20183;-66
2021/01/07 10:22:00;;;;;;;44.50;23.60;;;;;;;;;;5096666;28;20229;-66
2021/01/07 10:24:29;;;;;;;45.00;25.73;;;;;;;;;;5096226;28;20659;-66
2021/01/07 10:27:05;;;;;;;46.08;23.05;;;;;;;;;;5096980;28;20187;-66
2021/01/07 10:29:33;;;;;;;43.47;25.70;;;;;;;;;;5096161;28;20649;-66
2021/01/07 10:32:03;;;;;;;41.42;23.70;;;;;;;;;;5096063;28;20195;-66
2021/01/07 10:34:31;;;;;;;37.00;21.05;;;;;;;;;;5096423;28;20199;-66
2021/01/07 10:36:58;;;;;;;37.67;22.33;;;;;;;;;;5095789;28;20211;-66
2021/01/07 10:39:26;;;;;;;42.47;22.27;;;;;;;;;;5096070;28;20195;-66
2021/01/07 10:41:56;;;;;;;41.03;21.10;;;;;;;;;;5095812;28;20227;-66
2021/01/07 10:44:22;;;;;;;39.88;22.13;;;;;;;;;;5096254;28;20195;-66
2021/01/07 10:46:54;;;;;;;36.55;20.73;;;;;;;;;;5095369;28;20690;-66
2021/01/07 10:49:24;;;;;;;40.88;23.30;;;;;;;;;;5096026;28;20219;-66
2021/01/07 10:52:16;;;;;;;36.25;22.40;;;;;;;;;;5095949;28;20206;-65
2021/01/07 10:54:49;;;;;;;34.67;18.65;;;;;;;;;;5088784;28;20199;-66
2021/01/07 10:57:54;;;;;;;36.80;20.92;;;;;;;;;;5095829;28;20172;-65
2021/01/07 11:00:24;;;;;;;33.60;20.67;;;;;;;;;;5041331;28;20315;-66
2021/01/07 11:03:16;;;;;;;31.77;20.00;;;;;;;;;;5095917;28;20231;-66
2021/01/07 11:05:44;;;;;;;33.50;19.60;;;;;;;;;;5067439;28;20203;-66
2021/01/07 11:08:27;;;;;;;25.52;16.75;;;;;;;;;;5096163;28;20188;-66
2021/01/07 11:10:58;;;;;;;32.40;19.48;;;;;;;;;;5095849;28;20657;-66
2021/01/07 11:13:32;;;;;;;32.08;18.90;;;;;;;;;;5095721;28;20264;-65
2021/01/07 11:16:00;;;;;;;32.80;19.98;;;;;;;;;;5095225;28;20221;-66
2021/01/07 11:18:34;;;;;;;30.45;20.02;;;;;;;;;;5095257;28;20201;-66
2021/01/07 11:21:05;;;;;;;30.70;17.88;;;;;;;;;;5094818;28;20214;-66
2021/01/07 11:23:34;;;;;;;31.70;17.40;;;;;;;;;;5095074;28;20203;-66
2021/01/07 11:26:02;;;;;;;28.02;17.60;;;;;;;;;;5093809;28;20211;-65
2021/01/07 11:28:30;;;;;;;26.48;16.88;;;;;;;;;;5095279;28;20199;-66
2021/01/07 11:30:57;;;;;;;29.40;17.42;;;;;;;;;;5094987;28;20275;-66
2021/01/07 11:33:24;;;;;;;30.45;18.83;;;;;;;;;;5095157;28;20595;-66
2021/01/07 11:35:53;;;;;;;58.72;19.50;;;;;;;;;;5095690;28;20538;-66
2021/01/07 11:38:23;;;;;;;28.15;16.67;;;;;;;;;;5095106;28;20195;-66
2021/01/07 11:41:02;;;;;;;26.65;16.08;;;;;;;;;;5094973;28;20658;-66
2021/01/07 11:43:44;;;;;;;29.98;17.08;;;;;;;;;;5094809;28;20182;-66
2021/01/07 11:46:17;;;;;;;28.05;16.83;;;;;;;;;;5094676;28;20722;-66
2021/01/07 11:48:53;;;;;;;26.95;16.05;;;;;;;;;;5094735;28;20222;-66
2021/01/07 11:51:20;;;;;;;27.27;16.63;;;;;;;;;;5094623;28;20187;-67
2021/01/07 11:53:49;;;;;;;28.02;16.10;;;;;;;;;;5095129;28;20209;-66
2021/01/07 11:56:17;;;;;;;29.77;17.25;;;;;;;;;;5094260;28;20196;-66
2021/01/07 11:58:45;;;;;;;34.60;21.13;;;;;;;;;;5093646;28;20805;-66
2021/01/07 12:01:15;;;;;;;26.52;17.58;;;;;;;;;;5094305;28;21179;-66
2021/01/07 12:03:46;;;;;;;28.52;17.58;;;;;;;;;;5094826;28;20187;-65
2021/01/07 12:06:16;;;;;;;24.85;16.80;;;;;;;;;;5094736;28;20202;-65
2021/01/07 12:09:03;;;;;;;23.08;14.75;;;;;;;;;;5094264;28;20218;-66
2021/01/07 12:11:36;;;;;;;23.23;12.75;;;;;;;;;;5093813;28;20228;-66
2021/01/07 12:14:07;;;;;;;22.13;13.00;;;;;;;;;;5094423;28;20635;-66
2021/01/07 12:16:37;;;;;;;27.75;14.50;;;;;;;;;;5094763;28;20218;-66
2021/01/07 12:19:05;;;;;;;27.13;15.68;;;;;;;;;;5094223;28;20199;-66
2021/01/07 12:21:32;;;;;;;19.55;12.52;;;;;;;;;;5092922;28;20259;-66
2021/01/07 12:24:00;;;;;;;23.13;13.65;;;;;;;;;;5094365;28;20199;-66
2021/01/07 12:26:27;;;;;;;24.58;14.88;;;;;;;;;;5094050;28;20349;-67
2021/01/07 12:28:55;;;;;;;24.75;13.13;;;;;;;;;;5094079;28;20198;-67
2021/01/07 12:31:22;;;;;;;24.30;14.07;;;;;;;;;;5093617;28;20639;-67
2021/01/07 12:34:02;;;;;;;25.92;15.50;;;;;;;;;;5093722;28;20629;-66
2021/01/07 12:36:29;;;;;;;23.13;14.85;;;;;;;;;;5094077;28;20611;-67
2021/01/07 12:39:15;;;;;;;24.48;14.93;;;;;;;;;;5093769;28;20199;-66
2021/01/07 12:41:52;;;;;;;25.63;15.10;;;;;;;;;;5094346;28;20215;-66
2021/01/07 12:44:21;;;;;;;20.63;11.88;;;;;;;;;;5094435;28;20199;-66
2021/01/07 12:46:50;;;;;;;21.60;13.52;;;;;;;;;;5093802;28;20231;-67
2021/01/07 12:49:17;;;;;;;21.90;14.10;;;;;;;;;;5093912;28;20211;-66
2021/01/07 12:51:44;;;;;;;27.40;13.43;;;;;;;;;;5093594;28;20203;-67
2021/01/07 12:54:15;;;;;;;19.75;13.32;;;;;;;;;;5093592;28;20268;-67
2021/01/07 12:56:49;;;;;;;23.15;14.55;;;;;;;;;;5093926;28;20225;-66
2021/01/07 12:59:20;;;;;;;26.52;14.63;;;;;;;;;;5094118;28;20190;-66
2021/01/07 13:02:25;;;;;;;22.50;14.35;;;;;;;;;;5093885;28;20260;-67
2021/01/07 13:04:59;;;;;;;22.42;13.50;;;;;;;;;;5031291;28;20255;-66
2021/01/07 13:07:29;;;;;;;23.73;14.88;;;;;;;;;;5031204;28;20181;-67
2021/01/07 13:09:57;;;;;;;26.48;15.93;;;;;;;;;;5066406;28;20290;-67
2021/01/07 13:12:24;;;;;;;24.15;14.38;;;;;;;;;;5093514;28;20204;-67
2021/01/07 13:14:51;;;;;;;21.67;14.35;;;;;;;;;;5093323;28;20187;-66
2021/01/07 13:17:18;;;;;;;20.65;14.18;;;;;;;;;;5092359;28;20289;-67
2021/01/07 13:19:53;;;;;;;20.27;12.50;;;;;;;;;;5093813;28;20203;-66
2021/01/07 13:22:20;;;;;;;15.23;10.73;;;;;;;;;;5092880;28;20229;-67
2021/01/07 13:24:46;;;;;;;19.80;11.70;;;;;;;;;;5093228;28;20192;-66
2021/01/07 13:27:13;;;;;;;16.60;11.30;;;;;;;;;;5093184;28;20191;-66
2021/01/07 13:29:42;;;;;;;16.52;10.40;;;;;;;;;;5094470;28;20280;-66
2021/01/07 13:32:09;;;;;;;15.55;11.20;;;;;;;;;;5093853;28;20244;-66
2021/01/07 13:34:38;;;;;;;14.68;10.30;;;;;;;;;;5093919;28;20207;-66
2021/01/07 13:37:05;;;;;;;16.05;11.23;;;;;;;;;;5093490;28;20208;-66
2021/01/07 13:39:33;;;;;;;16.30;10.88;;;;;;;;;;5093720;28;20332;-67
2021/01/07 13:42:00;;;;;;;13.23;8.82;;;;;;;;;;5093264;28;20278;-67
2021/01/07 13:44:27;;;;;;;13.48;9.18;;;;;;;;;;5096796;28;20207;-67
2021/01/07 13:46:56;;;;;;;15.82;9.70;;;;;;;;;;5097096;28;20231;-66
2021/01/07 13:49:24;;;;;;;12.40;8.20;;;;;;;;;;5096777;28;20234;-67
2021/01/07 13:51:54;;;;;;;12.32;9.25;;;;;;;;;;5097809;28;20268;-66
2021/01/07 13:54:22;;;;;;;13.52;9.93;;;;;;;;;;5096413;28;20207;-66
2021/01/07 13:56:49;;;;;;;13.85;9.40;;;;;;;;;;5096894;28;20203;-66
2021/01/07 13:59:18;;;;;;;15.60;10.75;;;;;;;;;;5096735;28;20207;-66
2021/01/07 14:01:45;;;;;;;14.85;9.15;;;;;;;;;;5096744;28;20554;-66
2021/01/07 14:04:12;;;;;;;15.05;9.77;;;;;;;;;;5096622;28;20195;-67
2021/01/07 14:06:41;;;;;;;16.15;10.02;;;;;;;;;;5096816;28;20203;-66
2021/01/07 14:09:21;;;;;;;13.95;9.25;;;;;;;;;;5096893;28;20203;-66
2021/01/07 14:11:49;;;;;;;17.45;10.88;;;;;;;;;;5096669;28;20203;-66
2021/01/07 14:14:17;;;;;;;15.60;11.20;;;;;;;;;;5096771;28;20203;-65
2021/01/07 14:16:47;;;;;;;17.15;11.63;;;;;;;;;;5096686;28;20199;-65
2021/01/07 14:19:16;;;;;;;21.52;9.65;;;;;;;;;;5096421;28;20207;-65
2021/01/07 14:21:42;;;;;;;16.00;10.63;;;;;;;;;;5096308;28;20207;-65
2021/01/07 14:24:12;;;;;;;13.75;9.70;;;;;;;;;;5096603;28;20211;-65
2021/01/07 14:26:50;;;;;;;18.73;14.23;;;;;;;;;;5096160;28;20204;-65
2021/01/07 14:29:18;;;;;;;28.92;21.08;;;;;;;;;;5096452;28;20619;-66
2021/01/07 14:31:47;;;;;;;18.48;14.40;;;;;;;;;;5096390;28;20207;-65